Time;durP1;ratioP1;P1;durP2;ratioP2;P2;SDS_P1;SDS_P2;PMS_P1;PMS_P2;Temp;Humidity;BMP_temperature;BMP_pressure;BME280_temperature;BME280_humidity;BME280_pressure;Samples;Min_cycle;Max_cycle;Signal;HPM_P1;HPM_P2
2021/12/22 00:01:27;;;;;;;143.35;66.53;;;;;;;5.06;100.00;99369.16;5095818;28;20040;-93
2021/12/22 00:03:54;;;;;;;145.35;68.03;;;;;;;4.87;nan;99343.59;5095989;28;20048;-94
2021/12/22 00:06:23;;;;;;;138.23;64.53;;;;;;;4.93;100.00;99349.78;5095832;28;20044;-92
2021/12/22 00:08:52;;;;;;;137.65;64.80;;;;;;;4.98;100.00;99360.34;5095963;28;20063;-93
2021/12/22 00:11:22;;;;;;;148.63;69.65;;;;;;;4.87;100.00;99341.84;5095740;28;20085;-92
2021/12/22 00:13:48;;;;;;;147.13;74.68;;;;;;;4.88;100.00;99354.16;5095761;28;20044;-92
2021/12/22 00:16:16;;;;;;;154.35;71.70;;;;;;;4.88;100.00;99351.50;5095431;28;20560;-92
2021/12/22 00:18:46;;;;;;;151.40;68.77;;;;;;;4.86;100.00;99342.72;5095575;28;20056;-93
2021/12/22 00:21:12;;;;;;;145.40;69.32;;;;;;;4.94;100.00;99353.28;5095721;28;20529;-93
2021/12/22 00:23:38;;;;;;;149.90;71.95;;;;;;;4.93;100.00;99357.69;5096057;28;20044;-93
2021/12/22 00:26:04;;;;;;;150.43;72.95;;;;;;;4.93;100.00;99356.81;5095881;28;20097;-93
2021/12/22 00:28:33;;;;;;;158.60;72.88;;;;;;;5.00;100.00;99357.72;5095738;28;20118;-93
2021/12/22 00:30:59;;;;;;;150.02;70.53;;;;;;;5.00;100.00;99360.34;5095794;28;20036;-92
2021/12/22 00:33:28;;;;;;;154.57;71.75;;;;;;;4.82;100.00;99337.44;5095938;28;20043;-94
2021/12/22 00:35:58;;;;;;;146.15;70.10;;;;;;;4.81;100.00;99327.75;5096203;28;20044;-94
2021/12/22 00:38:24;;;;;;;150.68;71.82;;;;;;;5.00;100.00;99357.72;5095670;28;20036;-92
2021/12/22 00:40:50;;;;;;;139.90;67.80;;;;;;;5.02;100.00;99364.75;5095750;28;20375;-92
2021/12/22 00:43:17;;;;;;;126.88;62.95;;;;;;;5.01;100.00;99363.00;5095527;28;20040;-92
2021/12/22 00:45:43;;;;;;;151.77;68.03;;;;;;;4.97;100.00;99352.44;5095706;28;20056;-92
2021/12/22 00:48:11;;;;;;;146.13;70.15;;;;;;;4.97;100.00;99358.59;5095197;28;20573;-92
2021/12/22 00:50:41;;;;;;;142.82;65.50;;;;;;;4.88;100.00;99330.44;5095653;28;20521;-93
2021/12/22 00:53:07;;;;;;;137.57;65.97;;;;;;;4.98;100.00;99349.78;5096001;28;20040;-92
2021/12/22 00:55:33;;;;;;;139.45;68.03;;;;;;;5.01;100.00;99359.47;5095916;28;20124;-94
2021/12/22 00:57:59;;;;;;;142.38;69.80;;;;;;;4.93;100.00;99347.13;5096018;28;20044;-93
2021/12/22 01:00:26;;;;;;;147.00;68.93;;;;;;;4.96;100.00;99348.91;5095417;28;20040;-94
2021/12/22 01:02:52;;;;;;;155.85;72.80;;;;;;;4.92;100.00;99331.31;5095054;28;20048;-93
2021/12/22 01:05:19;;;;;;;147.68;72.47;;;;;;;4.85;100.00;99327.75;5095581;28;20080;-93
2021/12/22 01:07:50;;;;;;;146.40;71.35;;;;;;;4.98;100.00;99351.56;5095593;28;20044;-94
2021/12/22 01:10:18;;;;;;;155.95;73.35;;;;;;;4.92;100.00;99333.94;5095212;28;20043;-93
2021/12/22 01:12:44;;;;;;;150.30;72.15;;;;;;;4.94;100.00;99324.28;5097375;28;20135;-91
2021/12/22 01:27:24;;;;;;;137.25;65.25;;;;;;;5.04;100.00;99359.50;5109029;27;20370;-93
2021/12/22 01:29:51;;;;;;;120.72;58.58;;;;;;;5.05;100.00;99359.50;5092857;28;20040;-94
2021/12/22 01:32:18;;;;;;;118.75;56.83;;;;;;;4.89;100.00;99334.81;5092812;28;20131;-94
2021/12/22 01:34:44;;;;;;;115.88;54.75;;;;;;;5.05;100.00;99367.41;5093147;28;20513;-94
2021/12/22 01:37:10;;;;;;;111.30;53.38;;;;;;;4.98;100.00;99351.56;5092802;28;20071;-93
2021/12/22 01:39:36;;;;;;;105.80;51.45;;;;;;;4.94;100.00;99345.38;5092520;28;20105;-95
2021/12/22 01:42:03;;;;;;;107.70;52.50;;;;;;;5.00;100.00;99358.59;5092854;28;20494;-94
2021/12/22 01:44:46;;;;;;;103.32;50.13;;;;;;;4.93;100.00;99328.69;5093512;28;20085;-94
2021/12/22 01:50:15;;;;;;;117.18;58.08;;;;;;;4.93;100.00;99341.00;5109205;27;20890;-94
2021/12/22 01:52:41;;;;;;;109.72;55.38;;;;;;;4.91;100.00;99338.34;5093643;28;20131;-93
2021/12/22 01:55:29;;;;;;;103.20;51.40;;;;;;;4.86;100.00;99329.53;5093249;28;20054;-94
2021/12/22 01:58:00;;;;;;;129.85;58.67;;;;;;;4.99;100.00;99351.56;5093927;28;20036;-94
2021/12/22 02:00:26;;;;;;;123.32;59.05;;;;;;;5.04;100.00;99355.09;5093632;28;20040;-94
2021/12/22 02:02:56;;;;;;;116.47;58.53;;;;;;;4.99;100.00;99335.75;5094722;28;20497;-94
2021/12/22 02:05:25;;;;;;;118.45;57.22;;;;;;;5.00;100.00;99340.13;5093877;28;20044;-94
2021/12/22 02:07:55;;;;;;;127.35;58.75;;;;;;;5.08;100.00;99356.88;5093961;28;20071;-93
2021/12/22 02:13:31;;;;;;;123.82;57.95;;;;;;;5.00;100.00;99334.88;5093971;27;20397;-93
2021/12/22 02:16:06;;;;;;;135.88;61.50;;;;;;;4.91;100.00;99326.94;5093242;28;20040;-93
2021/12/22 02:18:32;;;;;;;152.23;70.47;;;;;;;4.89;100.00;99316.38;5092681;28;20040;-94
2021/12/22 02:21:00;;;;;;;141.80;65.07;;;;;;;4.98;100.00;99333.97;5092932;28;20052;-93
2021/12/22 02:23:26;;;;;;;140.32;65.22;;;;;;;5.00;100.00;99328.72;5094213;28;20040;-94
2021/12/22 02:25:57;;;;;;;129.40;60.78;;;;;;;4.86;100.00;99312.84;5093952;28;20062;-94
2021/12/22 02:28:28;;;;;;;121.78;56.80;;;;;;;5.04;100.00;99341.91;5093273;28;20391;-94
2021/12/22 02:30:55;;;;;;;96.80;49.65;;;;;;;5.00;100.00;99334.00;5093229;28;20107;-94
2021/12/22 02:36:28;;;;;;;98.35;48.47;;;;;;;4.92;100.00;99318.13;5134943;27;20379;-95
2021/12/22 02:38:57;;;;;;;97.20;48.58;;;;;;;4.94;100.00;99319.03;5134905;27;20047;-93
2021/12/22 02:41:27;;;;;;;95.72;48.30;;;;;;;5.00;100.00;99329.59;5135051;27;20082;-95
2021/12/22 02:43:55;;;;;;;104.32;50.80;;;;;;;5.03;100.00;99329.63;5133610;27;20031;-94
2021/12/22 02:46:25;;;;;;;89.53;45.65;;;;;;;4.97;100.00;99324.31;5133605;27;20043;-94
2021/12/22 02:48:52;;;;;;;;;;;;;;;5.10;100.00;99344.59;5134086;27;20481;-93
2021/12/22 02:51:19;;;;;;;95.03;43.47;;;;;;;4.90;100.00;99315.50;5133614;27;19927;-94
2021/12/22 02:59:51;;;;;;;85.82;44.72;;;;;;;4.92;100.00;99324.31;5125932;27;20358;-94
2021/12/22 03:05:40;;;;;;;93.07;45.80;;;;;;;4.96;100.00;99324.31;5135241;27;20375;-94
2021/12/22 03:08:06;;;;;;;92.82;45.60;;;;;;;4.95;100.00;99328.69;5133747;27;20051;-94
2021/12/22 03:10:33;;;;;;;91.43;47.67;;;;;;;4.93;100.00;99322.53;5133337;27;20042;-94
2021/12/22 03:13:03;;;;;;;99.40;49.28;;;;;;;4.95;100.00;99326.06;5132963;27;20043;-93
2021/12/22 03:15:30;;;;;;;108.28;54.35;;;;;;;4.99;100.00;99343.66;5133180;27;20047;-93
2021/12/22 03:17:56;;;;;;;114.90;56.40;;;;;;;4.81;100.00;99314.56;5133386;28;20114;-93
2021/12/22 03:20:23;;;;;;;112.30;56.90;;;;;;;4.97;100.00;99334.88;5133617;27;20039;-94
2021/12/22 03:22:53;;;;;;;109.25;54.05;;;;;;;4.92;100.00;99324.31;5133721;27;20051;-93
2021/12/22 03:25:20;;;;;;;;;;;;;;;4.98;100.00;99331.34;5134622;27;20049;-93
2021/12/22 03:27:52;;;;;;;109.20;49.63;;;;;;;4.85;100.00;99313.72;5133796;27;19970;-95
2021/12/22 03:30:20;;;;;;;127.75;56.50;;;;;;;4.87;100.00;99317.25;5133208;28;20040;-95
2021/12/22 03:32:46;;;;;;;117.15;55.03;;;;;;;4.84;100.00;99304.94;5133040;28;20110;-95
2021/12/22 03:35:16;;;;;;;117.10;55.65;;;;;;;4.91;100.00;99321.66;5134153;28;20036;-95
2021/12/22 03:37:44;;;;;;;113.85;56.67;;;;;;;4.85;100.00;99308.44;5133590;27;20043;-93
2021/12/22 03:40:12;;;;;;;116.25;54.38;;;;;;;4.77;100.00;99300.53;5133448;28;20065;-94
2021/12/22 03:42:38;;;;;;;123.13;56.45;;;;;;;4.96;100.00;99340.13;5133954;27;20046;-94
2021/12/22 03:45:05;;;;;;;113.80;55.75;;;;;;;4.92;100.00;99333.94;5133628;27;20047;-94
2021/12/22 03:47:31;;;;;;;116.25;56.15;;;;;;;4.90;100.00;99325.16;5133493;27;20053;-95
2021/12/22 03:49:57;;;;;;;125.43;58.42;;;;;;;4.92;100.00;99326.03;5133714;27;20118;-95
2021/12/22 03:52:23;;;;;;;119.13;57.65;;;;;;;4.83;100.00;99312.81;5134113;27;20039;-95
2021/12/22 03:54:54;;;;;;;121.43;59.25;;;;;;;4.87;100.00;99331.28;5133457;27;20039;-96
2021/12/22 03:57:21;;;;;;;121.70;59.00;;;;;;;4.85;100.00;99326.88;5133068;27;20385;-95
2021/12/22 03:59:47;;;;;;;123.35;60.22;;;;;;;4.91;100.00;99333.06;5133485;27;20127;-95
2021/12/22 04:02:14;;;;;;;120.75;57.75;;;;;;;4.90;100.00;99341.88;5133939;27;20078;-94
2021/12/22 04:04:43;;;;;;;130.82;60.97;;;;;;;4.87;100.00;99340.97;5136437;27;20062;-95
2021/12/22 04:07:09;;;;;;;129.02;61.72;;;;;;;4.82;100.00;99335.66;5135688;27;20092;-95
2021/12/22 04:09:36;;;;;;;128.25;59.97;;;;;;;4.85;100.00;99343.56;5135351;27;20036;-94
2021/12/22 04:12:02;;;;;;;115.80;58.08;;;;;;;4.79;100.00;99327.72;5134427;27;20061;-95
2021/12/22 04:14:29;;;;;;;123.22;59.05;;;;;;;4.81;100.00;99333.88;5134428;27;20456;-95
2021/12/22 04:16:55;;;;;;;119.82;57.67;;;;;;;4.88;100.00;99340.06;5120196;27;20047;-94
2021/12/22 04:19:24;;;;;;;112.80;57.13;;;;;;;4.91;100.00;99342.75;5120500;28;20052;-93
2021/12/22 04:21:51;;;;;;;121.70;57.55;;;;;;;4.77;100.00;99326.88;5119836;28;20116;-96
2021/12/22 04:24:18;;;;;;;123.25;58.42;;;;;;;4.70;100.00;99318.03;5119314;28;20480;-96
2021/12/22 04:26:45;;;;;;;123.47;59.13;;;;;;;4.80;100.00;99331.28;5120102;28;20432;-96
2021/12/22 04:29:13;;;;;;;127.25;59.03;;;;;;;4.71;100.00;99314.53;5120466;28;20111;-95
2021/12/22 04:31:40;;;;;;;131.48;61.55;;;;;;;4.73;100.00;99323.31;5120459;28;20074;-94
2021/12/22 04:37:08;;;;;;;126.20;62.45;;;;;;;4.87;100.00;99325.16;5114240;27;20148;-94
2021/12/22 04:39:34;;;;;;;121.00;58.92;;;;;;;4.85;100.00;99337.44;5093609;28;20056;-95
2021/12/22 04:42:00;;;;;;;128.35;61.03;;;;;;;4.85;100.00;99348.84;5093778;28;20490;-94
2021/12/22 04:44:26;;;;;;;119.72;60.10;;;;;;;4.77;100.00;99345.31;5093732;28;20094;-95
2021/12/22 04:46:53;;;;;;;126.22;61.15;;;;;;;4.84;100.00;99359.41;5093543;28;20043;-94
2021/12/22 04:49:20;;;;;;;125.00;59.90;;;;;;;4.68;100.00;99330.34;5094580;28;20053;-96
2021/12/22 04:51:52;;;;;;;125.63;59.13;;;;;;;4.68;100.00;99335.59;5094776;28;20608;-95
2021/12/22 04:57:29;;;;;;;116.22;59.13;;;;;;;4.79;100.00;99364.63;5085423;27;1488131;-95
2021/12/22 04:59:54;;;;;;;122.70;61.30;;;;;;;4.86;100.00;99376.09;5135517;28;20554;-95
2021/12/22 05:02:20;;;;;;;130.48;60.10;;;;;;;4.85;100.00;99374.31;5134930;28;20051;-95
2021/12/22 05:04:46;;;;;;;128.05;62.25;;;;;;;4.73;100.00;99356.69;5135338;28;20058;-94
2021/12/22 05:07:12;;;;;;;122.25;58.35;;;;;;;4.73;100.00;99359.34;5134814;28;20050;-94
2021/12/22 05:09:38;;;;;;;137.80;62.63;;;;;;;4.65;100.00;99351.38;5134223;28;20035;-91
2021/12/22 05:12:05;;;;;;;138.55;65.88;;;;;;;4.72;100.00;99360.19;5135931;28;20039;-96
2021/12/22 05:14:33;;;;;;;133.07;63.83;;;;;;;4.57;100.00;99350.44;5135589;28;20044;-94
2021/12/22 05:17:02;;;;;;;128.40;64.57;;;;;;;4.71;100.00;99383.03;5134611;28;20074;-95
2021/12/22 05:19:27;;;;;;;139.80;68.43;;;;;;;4.69;100.00;99371.59;5134148;28;20043;-96
2021/12/22 05:21:54;;;;;;;127.90;60.30;;;;;;;4.57;100.00;99346.94;5134480;28;20053;-93
2021/12/22 05:24:20;;;;;;;119.35;58.00;;;;;;;4.66;100.00;99354.88;5134766;28;20043;-96
2021/12/22 05:26:46;;;;;;;119.32;54.63;;;;;;;4.79;100.00;99377.78;5134738;28;20126;-95
2021/12/22 05:29:12;;;;;;;140.68;64.97;;;;;;;4.68;100.00;99354.03;5134154;28;20063;-94
2021/12/22 05:31:40;;;;;;;141.65;67.13;;;;;;;4.78;100.00;99377.81;5134319;28;20040;-95
2021/12/22 05:34:06;;;;;;;138.77;63.97;;;;;;;4.80;100.00;99370.78;5134223;28;20493;-95
2021/12/22 05:36:32;;;;;;;135.07;62.45;;;;;;;4.76;100.00;99371.66;5134246;28;20558;-95
2021/12/22 05:38:57;;;;;;;129.45;62.63;;;;;;;4.72;100.00;99370.72;5133779;28;20048;-94
2021/12/22 05:41:24;;;;;;;133.90;63.85;;;;;;;4.79;100.00;99379.56;5133812;28;20071;-95
2021/12/22 05:43:50;;;;;;;138.00;62.85;;;;;;;4.79;100.00;99380.44;5134213;28;20100;-95
2021/12/22 05:46:17;;;;;;;135.98;63.47;;;;;;;4.75;100.00;99368.13;5133433;28;20042;-94
2021/12/22 05:48:47;;;;;;;138.82;64.50;;;;;;;4.82;100.00;99384.84;5134241;28;20043;-96
2021/12/22 05:51:13;;;;;;;140.75;64.15;;;;;;;4.70;100.00;99377.75;5133017;28;20503;-95
2021/12/22 05:53:39;;;;;;;127.75;63.35;;;;;;;4.65;100.00;99355.78;5133105;28;20040;-94
2021/12/22 05:56:05;;;;;;;135.38;62.55;;;;;;;4.73;100.00;99383.94;5132646;28;20051;-93
2021/12/22 05:58:31;;;;;;;133.15;61.50;;;;;;;4.70;100.00;99375.09;5133092;28;20069;-95
2021/12/22 06:00:57;;;;;;;125.93;59.40;;;;;;;4.70;100.00;99381.25;5113042;28;20079;-95
2021/12/22 06:03:23;;;;;;;127.20;59.58;;;;;;;4.67;100.00;99381.25;5112354;28;20039;-94
2021/12/22 06:05:51;;;;;;;127.20;59.35;;;;;;;4.70;100.00;99380.38;5112408;28;20039;-96
2021/12/22 06:08:17;;;;;;;118.20;56.50;;;;;;;4.64;100.00;99372.44;5101460;28;20131;-94
2021/12/22 06:10:42;;;;;;;120.65;55.72;;;;;;;4.79;100.00;99400.63;5098993;28;20132;-94
2021/12/22 06:13:10;;;;;;;112.00;55.28;;;;;;;4.69;100.00;99382.13;5100566;28;20058;-93
2021/12/22 06:15:38;;;;;;;123.80;56.40;;;;;;;4.80;100.00;99405.03;5099481;28;20044;-96
2021/12/22 06:18:06;;;;;;;116.95;56.45;;;;;;;4.64;100.00;99383.88;5102239;28;20130;-94
2021/12/22 06:20:33;;;;;;;;;;;;;;;4.85;100.00;99413.84;5104115;28;20127;-95
2021/12/22 06:23:01;;;;;;;118.93;54.65;;;;;;;4.62;100.00;99376.81;5104804;28;19916;-96
2021/12/22 06:25:28;;;;;;;123.18;59.30;;;;;;;4.72;100.00;99394.44;5106610;28;20048;-94
2021/12/22 06:27:54;;;;;;;119.20;58.20;;;;;;;4.62;100.00;99372.44;5105359;28;20048;-94
2021/12/22 06:30:21;;;;;;;119.90;59.40;;;;;;;4.81;100.00;99410.31;5105214;28;20044;-95
2021/12/22 06:32:47;;;;;;;117.05;56.83;;;;;;;4.67;100.00;99375.09;5103689;28;20036;-95
2021/12/22 06:35:13;;;;;;;107.68;55.17;;;;;;;4.77;100.00;99399.72;5104061;28;20050;-95
2021/12/22 06:37:39;;;;;;;96.45;48.92;;;;;;;4.90;100.00;99420.03;5104580;28;20066;-96
2021/12/22 06:40:08;;;;;;;94.15;46.83;;;;;;;4.72;100.00;99381.28;5104968;28;20044;-95
2021/12/22 06:42:34;;;;;;;73.00;35.90;;;;;;;4.79;100.00;99376.91;5104985;28;20052;-93
2021/12/22 06:45:01;;;;;;;64.88;34.22;;;;;;;4.82;100.00;99385.72;5105778;28;20495;-94
2021/12/22 06:47:28;;;;;;;83.93;42.55;;;;;;;4.85;100.00;99392.78;5102525;28;20048;-94
2021/12/22 06:49:55;;;;;;;101.15;48.10;;;;;;;4.91;100.00;99404.22;5104784;28;20066;-93
2021/12/22 06:52:20;;;;;;;101.43;48.92;;;;;;;4.86;100.00;99394.53;5105513;28;20501;-94
2021/12/22 06:54:49;;;;;;;91.72;49.53;;;;;;;4.91;100.00;99401.59;5105212;28;20105;-94
2021/12/22 06:57:19;;;;;;;93.45;50.10;;;;;;;4.94;100.00;99403.34;5105937;28;20484;-96
2021/12/22 06:59:46;;;;;;;107.15;51.50;;;;;;;4.91;100.00;99405.97;5106237;28;20119;-94
2021/12/22 07:02:13;;;;;;;104.75;48.28;;;;;;;4.88;100.00;99398.03;5104322;28;20401;-95
2021/12/22 07:04:40;;;;;;;95.07;47.95;;;;;;;5.01;100.00;99413.09;5105125;28;20050;-96
2021/12/22 07:07:06;;;;;;;101.93;50.67;;;;;;;4.96;100.00;99414.78;5104906;28;20123;-96
2021/12/22 07:09:32;;;;;;;107.15;53.03;;;;;;;4.97;100.00;99413.94;5104858;28;20133;-94
2021/12/22 07:11:58;;;;;;;104.25;51.38;;;;;;;4.97;100.00;99405.16;5105794;28;20051;-95
2021/12/22 07:14:29;;;;;;;102.68;51.85;;;;;;;4.97;100.00;99406.03;5106007;28;20040;-95
2021/12/22 07:16:55;;;;;;;105.07;52.08;;;;;;;4.99;100.00;99420.09;5105220;28;20037;-95
2021/12/22 07:19:21;;;;;;;102.05;52.30;;;;;;;5.00;100.00;99415.69;5103644;28;20044;-94
2021/12/22 07:21:48;;;;;;;107.25;52.85;;;;;;;4.99;100.00;99413.91;5104813;28;20046;-95
2021/12/22 07:24:15;;;;;;;109.82;52.88;;;;;;;5.14;100.00;99448.31;5104250;28;20092;-95
2021/12/22 07:26:42;;;;;;;102.20;51.33;;;;;;;5.01;100.00;99422.72;5105300;28;20040;-96
2021/12/22 07:29:09;;;;;;;103.88;50.40;;;;;;;5.06;100.00;99432.44;5105159;28;20040;-95
2021/12/22 07:31:37;;;;;;;100.22;50.08;;;;;;;5.11;100.00;99433.31;5103645;28;20050;-94
2021/12/22 07:34:12;;;;;;;111.75;50.55;;;;;;;5.16;100.00;99435.97;5105000;28;20421;-95
2021/12/22 07:36:46;;;;;;;66.45;34.97;;;;;;;5.32;100.00;99450.16;5104863;28;20036;-95
2021/12/22 07:39:15;;;;;;;64.88;32.85;;;;;;;5.18;100.00;99426.31;5105676;28;20127;-94
2021/12/22 07:41:41;;;;;;;61.10;31.33;;;;;;;5.34;100.00;99433.47;5104416;28;20040;-94
2021/12/22 07:44:07;;;;;;;64.63;34.95;;;;;;;5.23;100.00;99424.63;5103628;28;20040;-94
2021/12/22 07:46:33;;;;;;;60.25;31.52;;;;;;;5.34;100.00;99436.09;5104706;28;20044;-94
2021/12/22 07:49:01;;;;;;;74.15;32.00;;;;;;;5.44;100.00;99436.13;5104131;28;20048;-95
2021/12/22 07:51:27;;;;;;;63.28;32.25;;;;;;;5.56;100.00;99454.66;5104117;28;20044;-95
2021/12/22 07:53:54;;;;;;;62.67;32.20;;;;;;;5.51;100.00;99430.03;5104017;28;20044;-95
2021/12/22 07:56:20;;;;;;;147.13;68.25;;;;;;;5.59;100.00;99441.47;5103030;28;20051;-95
2021/12/22 07:58:47;;;;;;;110.07;52.15;;;;;;;5.70;100.00;99454.69;5103539;28;20044;-95
2021/12/22 08:01:13;;;;;;;62.92;32.22;;;;;;;5.84;100.00;99455.63;5104166;28;20059;-93
2021/12/22 08:03:42;;;;;;;58.17;31.65;;;;;;;5.76;100.00;99442.41;5103953;28;20040;-94
2021/12/22 08:06:10;;;;;;;;;;;;;;;5.90;100.00;99476.78;5105697;28;20043;-94
2021/12/22 08:08:36;;;;;;;56.67;30.15;;;;;;;5.78;100.00;99445.06;5123466;28;19919;-95
2021/12/22 08:11:02;;;;;;;53.60;28.92;;;;;;;5.82;100.00;99438.03;5124412;28;20047;-94
2021/12/22 08:13:28;;;;;;;55.28;29.65;;;;;;;5.96;100.00;99465.38;5123662;28;20048;-94
2021/12/22 08:15:55;;;;;;;57.33;29.60;;;;;;;5.83;100.00;99445.06;5122721;28;20067;-94
2021/12/22 08:18:24;;;;;;;56.30;30.70;;;;;;;5.86;100.00;99458.28;5123225;28;20055;-95
2021/12/22 08:20:52;;;;;;;75.32;38.85;;;;;;;5.86;100.00;99447.72;5123421;28;20048;-96
2021/12/22 08:23:20;;;;;;;68.67;36.97;;;;;;;6.12;100.00;99476.88;5123228;28;20050;-95
2021/12/22 08:25:46;;;;;;;66.90;35.75;;;;;;;6.11;100.00;99461.88;5122695;28;20822;-95
2021/12/22 08:28:15;;;;;;;61.47;33.63;;;;;;;6.10;100.00;99444.28;5124020;28;20126;-96
2021/12/22 08:30:41;;;;;;;58.72;32.22;;;;;;;6.22;100.00;99459.25;5124371;28;20086;-95
2021/12/22 08:39:34;;;;;;;64.68;34.75;;;;;;;6.15;100.00;99461.88;5182592;27;20380;-95
2021/12/22 08:42:00;;;;;;;72.45;36.17;;;;;;;6.24;100.00;99454.88;5184768;27;20035;-96
2021/12/22 08:44:33;;;;;;;73.90;37.45;;;;;;;6.38;100.00;99466.34;5183190;27;20060;-95
2021/12/22 08:46:59;;;;;;;81.32;42.42;;;;;;;6.53;100.00;99479.56;5181219;27;20047;-94
2021/12/22 08:49:25;;;;;;;107.93;50.88;;;;;;;6.54;100.00;99465.44;5179620;27;20054;-96
2021/12/22 08:51:52;;;;;;;95.43;45.50;;;;;;;6.60;100.00;99467.22;5181686;27;20042;-94
2021/12/22 08:54:18;;;;;;;81.78;41.13;;;;;;;6.89;100.00;99505.97;5180959;27;20519;-96
2021/12/22 08:56:46;;;;;;;72.90;39.88;;;;;;;6.84;100.00;99487.47;5180274;27;20038;-96
2021/12/22 08:59:14;;;;;;;74.75;38.88;;;;;;;6.81;100.00;99476.94;5180018;27;20519;-95
2021/12/22 09:01:40;;;;;;;75.28;38.20;;;;;;;6.91;100.00;99491.00;5181389;27;20042;-95
2021/12/22 09:04:06;;;;;;;71.75;39.75;;;;;;;6.89;100.00;99491.00;5183170;27;20072;-96
2021/12/22 09:06:36;;;;;;;77.55;42.08;;;;;;;6.92;100.00;99493.66;5181223;27;20098;-96
2021/12/22 09:09:04;;;;;;;76.57;41.67;;;;;;;6.99;100.00;99494.53;5182525;27;20395;-96
2021/12/22 09:11:30;;;;;;;82.30;44.28;;;;;;;7.12;99.90;99517.44;5181772;27;20041;-95
2021/12/22 09:13:57;;;;;;;88.13;46.03;;;;;;;7.02;99.27;99497.16;5183416;27;20046;-95
2021/12/22 09:16:26;;;;;;;83.80;46.53;;;;;;;6.97;99.03;99507.75;5183213;27;20050;-95
2021/12/22 09:18:52;;;;;;;87.77;46.63;;;;;;;6.89;99.39;99501.56;5187393;27;20045;-94
2021/12/22 09:21:18;;;;;;;83.10;45.20;;;;;;;6.88;100.00;99501.59;5184328;27;20038;-94
2021/12/22 09:23:44;;;;;;;82.72;45.80;;;;;;;6.94;100.00;99501.56;5184640;27;20098;-96
2021/12/22 09:26:11;;;;;;;91.32;46.33;;;;;;;7.11;100.00;99520.06;5182746;27;20049;-95
2021/12/22 09:28:39;;;;;;;88.15;45.42;;;;;;;7.08;98.62;99509.50;5184399;27;20046;-93
2021/12/22 09:31:09;;;;;;;84.57;46.42;;;;;;;7.05;99.42;99509.50;5183175;27;20109;-96
2021/12/22 09:33:38;;;;;;;81.85;47.08;;;;;;;7.23;99.42;99522.72;5182076;27;20456;-95
2021/12/22 09:36:06;;;;;;;;;;;;;;;7.38;99.45;99543.84;5181873;27;20038;-95
2021/12/22 09:38:32;;;;;;;79.43;46.67;;;;;;;7.38;98.87;99520.03;5179768;27;19919;-94
2021/12/22 09:40:59;;;;;;;93.82;47.67;;;;;;;7.38;98.56;99514.75;5180587;27;20046;-95
2021/12/22 09:43:26;;;;;;;90.68;46.88;;;;;;;7.49;98.14;99525.31;5180596;27;20042;-94
2021/12/22 09:45:57;;;;;;;91.72;48.28;;;;;;;7.65;98.21;99534.06;5178650;27;20043;-95
2021/12/22 09:54:21;;;;;;;86.50;47.13;;;;;;;7.81;96.70;99516.38;5177326;27;20835;-95
2021/12/22 09:56:47;;;;;;;76.60;44.63;;;;;;;7.99;96.66;99539.25;5177389;27;20051;-94
2021/12/22 09:59:14;;;;;;;86.80;45.78;;;;;;;7.91;96.10;99507.50;5177154;27;20049;-95
2021/12/22 10:01:40;;;;;;;73.05;43.53;;;;;;;8.00;95.95;99512.78;5177129;27;20387;-93
2021/12/22 10:04:06;;;;;;;66.95;38.78;;;;;;;8.00;95.52;99498.63;5175663;27;20130;-94
2021/12/22 10:06:32;;;;;;;72.45;40.42;;;;;;;7.87;94.95;99496.94;5175672;27;20133;-93
2021/12/22 10:09:03;;;;;;;68.95;40.88;;;;;;;8.08;95.91;99522.44;5176884;27;20038;-94
2021/12/22 10:11:32;;;;;;;71.20;40.08;;;;;;;8.18;95.94;99519.72;5177063;27;20503;-96
2021/12/22 10:13:58;;;;;;;62.70;36.78;;;;;;;8.23;93.87;99499.38;5176442;27;20070;-94
2021/12/22 10:16:27;;;;;;;51.67;30.77;;;;;;;8.18;92.89;99492.38;5177390;27;20494;-95
2021/12/22 10:19:07;;;;;;;53.63;30.58;;;;;;;7.99;93.52;99488.94;5179132;27;20053;-94
2021/12/22 10:21:36;;;;;;;47.58;28.52;;;;;;;7.72;93.59;99471.38;5180575;27;20074;-94
2021/12/22 10:24:06;;;;;;;54.28;28.77;;;;;;;7.93;93.66;99483.66;5176380;27;20065;-94
2021/12/22 10:26:34;;;;;;;44.05;27.73;;;;;;;8.05;92.32;99496.84;5176809;27;20087;-94
2021/12/22 10:29:05;;;;;;;51.40;24.90;;;;;;;8.14;92.76;99469.44;5176227;27;20499;-95
2021/12/22 10:31:36;;;;;;;41.08;23.98;;;;;;;8.24;89.78;99465.84;5177587;27;20042;-95
2021/12/22 10:34:06;;;;;;;45.72;22.70;;;;;;;8.50;88.31;99478.03;5175489;27;20041;-95
2021/12/22 10:36:46;;;;;;;52.30;30.40;;;;;;;8.54;90.07;99463.88;5177688;27;20049;-94
2021/12/22 10:39:19;;;;;;;64.60;35.60;;;;;;;8.83;92.02;99479.56;5154421;27;20090;-94
2021/12/22 10:41:47;;;;;;;65.15;36.97;;;;;;;8.97;91.53;99474.13;5152984;27;20092;-94
2021/12/22 10:44:13;;;;;;;74.50;38.85;;;;;;;8.96;89.98;99444.06;5154694;27;20047;-94
2021/12/22 10:46:39;;;;;;;80.50;43.03;;;;;;;9.41;89.66;99454.19;5153895;27;20138;-95
2021/12/22 10:52:08;;;;;;;65.05;36.63;;;;;;;9.96;85.48;99445.56;5149507;27;1416607;-93
2021/12/22 10:54:36;;;;;;;60.53;36.25;;;;;;;10.03;84.73;99433.06;5176390;27;20051;-93
2021/12/22 10:57:05;;;;;;;58.80;33.65;;;;;;;10.10;83.85;99439.16;5174989;27;20076;-94
2021/12/22 10:59:41;;;;;;;35.05;20.52;;;;;;;9.75;78.62;99449.38;5176707;27;20043;-95
2021/12/22 11:02:24;;;;;;;40.33;24.88;;;;;;;9.84;79.80;99449.22;5176470;27;20043;-94
2021/12/22 11:04:49;;;;;;;58.90;32.70;;;;;;;10.06;78.13;99448.94;5176019;27;20091;-94
2021/12/22 11:10:30;;;;;;;30.48;19.25;;;;;;;9.91;78.46;99436.78;5176079;27;20379;-96
2021/12/22 11:13:00;;;;;;;33.55;19.92;;;;;;;9.85;78.89;99436.84;5176737;27;20042;-94
2021/12/22 11:15:39;;;;;;;45.05;26.58;;;;;;;9.93;79.72;99437.63;5174880;27;20043;-94
2021/12/22 11:18:08;;;;;;;56.10;30.10;;;;;;;10.04;81.17;99440.13;5175110;27;20069;-94
2021/12/22 11:20:34;;;;;;;44.33;26.85;;;;;;;9.95;81.80;99430.50;5174973;27;20042;-94
2021/12/22 11:23:02;;;;;;;45.45;26.42;;;;;;;9.97;81.59;99439.31;5176209;27;20555;-95
2021/12/22 11:25:32;;;;;;;45.20;27.13;;;;;;;9.99;81.60;99432.22;5176498;27;20026;-95
2021/12/22 11:27:59;;;;;;;43.33;26.30;;;;;;;10.01;81.53;99430.41;5177378;27;20054;-93
2021/12/22 11:30:27;;;;;;;41.05;25.92;;;;;;;10.01;80.26;99425.09;5177227;27;20053;-95
2021/12/22 11:32:54;;;;;;;257.55;145.48;;;;;;;10.00;76.94;99426.03;5177641;27;20035;-93
2021/12/22 11:35:22;;;;;;;28.90;19.33;;;;;;;10.28;72.20;99425.63;5177013;27;20134;-95
2021/12/22 11:37:49;;;;;;;26.15;15.30;;;;;;;10.07;72.86;99421.50;5177114;27;20038;-95
2021/12/22 11:54:00;;;;;;;22.30;14.00;;;;;;;9.68;73.73;99389.28;5127544;27;2052984;-96
2021/12/22 11:56:41;;;;;;;28.60;15.60;;;;;;;9.77;74.83;99414.81;5180837;27;20042;-93
2021/12/22 11:59:25;;;;;;;25.75;14.07;;;;;;;9.63;74.35;99373.41;5177322;27;20051;-93
2021/12/22 12:02:20;;;;;;;29.95;17.75;;;;;;;9.81;75.03;99409.44;5178099;27;20046;-94
2021/12/22 12:04:51;;;;;;;27.30;15.63;;;;;;;9.70;74.56;99381.28;5176782;27;20046;-96
2021/12/22 12:07:41;;;;;;;27.42;17.10;;;;;;;9.80;75.35;99409.47;5179474;27;20038;-95
2021/12/22 12:10:42;;;;;;;25.85;15.35;;;;;;;9.93;75.35;99404.84;5177311;27;20492;-96
2021/12/22 12:13:20;;;;;;;27.63;16.88;;;;;;;9.73;74.22;99402.47;5167375;27;20086;-96
2021/12/22 12:22:33;;;;;;;27.45;16.63;;;;;;;9.79;73.56;99383.81;5201237;27;19914;-94
2021/12/22 12:25:06;;;;;;;28.38;16.08;;;;;;;10.01;73.63;99385.25;5177818;27;20122;-94
2021/12/22 12:30:45;;;;;;;29.63;16.48;;;;;;;9.95;72.14;99373.84;5158351;27;20168;-96
2021/12/22 12:33:23;;;;;;;21.98;13.88;;;;;;;10.05;72.99;99378.97;5136528;28;20039;-95
2021/12/22 12:36:05;;;;;;;21.35;13.55;;;;;;;9.76;72.03;99359.94;5137889;27;20485;-96
2021/12/22 12:38:44;;;;;;;22.23;14.00;;;;;;;10.03;73.08;99383.44;5134998;28;20035;-94
2021/12/22 12:41:19;;;;;;;28.08;15.32;;;;;;;9.97;73.77;99396.81;5138827;28;20035;-96